sensor_id;sensor_type;location;lat;lon;timestamp;pressure;altitude;pressure_sealevel;temperature;humidity
10604;BME280;5349;41.554;23.274;2023-04-07T00:00:23;99272.28;;;6.42;50.23
10604;BME280;5349;41.554;23.274;2023-04-07T00:02:51;99274.94;;;6.42;51.11
10604;BME280;5349;41.554;23.274;2023-04-07T00:05:18;99276.13;;;6.39;50.26
10604;BME280;5349;41.554;23.274;2023-04-07T00:07:44;99278.31;;;6.28;50.29
10604;BME280;5349;41.554;23.274;2023-04-07T00:10:13;99277.34;;;6.21;50.60
10604;BME280;5349;41.554;23.274;2023-04-07T00:12:40;99282.78;;;6.27;50.06
10604;BME280;5349;41.554;23.274;2023-04-07T00:15:07;99284.28;;;6.22;50.34
10604;BME280;5349;41.554;23.274;2023-04-07T00:17:34;99276.22;;;6.15;50.64
10604;BME280;5349;41.554;23.274;2023-04-07T00:20:01;99289.97;;;6.11;51.36
10604;BME280;5349;41.554;23.274;2023-04-07T00:22:28;99290.97;;;6.10;51.25
10604;BME280;5349;41.554;23.274;2023-04-07T00:24:55;99285.03;;;6.08;51.15
10604;BME280;5349;41.554;23.274;2023-04-07T00:27:23;99287.03;;;5.98;51.83
10604;BME280;5349;41.554;23.274;2023-04-07T00:29:50;99289.66;;;6.06;52.02
10604;BME280;5349;41.554;23.274;2023-04-07T00:32:19;99287.31;;;6.11;51.68
10604;BME280;5349;41.554;23.274;2023-04-07T00:34:46;99294.75;;;6.15;51.65
10604;BME280;5349;41.554;23.274;2023-04-07T00:37:13;99293.41;;;6.19;51.26
10604;BME280;5349;41.554;23.274;2023-04-07T00:39:40;99289.47;;;6.07;52.16
10604;BME280;5349;41.554;23.274;2023-04-07T00:42:06;99293.31;;;6.05;51.10
10604;BME280;5349;41.554;23.274;2023-04-07T00:44:35;99301.56;;;6.10;52.33
10604;BME280;5349;41.554;23.274;2023-04-07T00:47:01;99292.13;;;5.99;52.28
10604;BME280;5349;41.554;23.274;2023-04-07T00:49:28;99302.25;;;6.04;51.81
10604;BME280;5349;41.554;23.274;2023-04-07T00:51:56;99294.44;;;6.02;51.74
10604;BME280;5349;41.554;23.274;2023-04-07T00:54:23;99289.16;;;5.95;51.38
10604;BME280;5349;41.554;23.274;2023-04-07T00:56:51;99298.63;;;5.89;52.53
10604;BME280;5349;41.554;23.274;2023-04-07T00:59:18;99309.19;;;5.97;52.18
10604;BME280;5349;41.554;23.274;2023-04-07T01:01:54;99309.53;;;6.02;52.08
10604;BME280;5349;41.554;23.274;2023-04-07T01:04:27;99301.78;;;5.85;52.40
10604;BME280;5349;41.554;23.274;2023-04-07T01:07:03;99315.19;;;5.83;52.25
10604;BME280;5349;41.554;23.274;2023-04-07T01:09:36;99310.22;;;5.88;52.44
10604;BME280;5349;41.554;23.274;2023-04-07T01:12:13;99313.34;;;5.92;52.38
10604;BME280;5349;41.554;23.274;2023-04-07T01:14:46;99313.19;;;5.85;52.19
10604;BME280;5349;41.554;23.274;2023-04-07T01:17:16;99253.53;;;5.43;52.33
10604;BME280;5349;41.554;23.274;2023-04-07T01:19:48;99320.47;;;5.83;52.32
10604;BME280;5349;41.554;23.274;2023-04-07T01:22:22;99310.88;;;5.74;53.18
10604;BME280;5349;41.554;23.274;2023-04-07T01:25:05;99317.81;;;5.67;52.92
10604;BME280;5349;41.554;23.274;2023-04-07T01:27:42;99313.50;;;5.74;53.41
10604;BME280;5349;41.554;23.274;2023-04-07T01:30:16;99316.50;;;5.71;53.44
10604;BME280;5349;41.554;23.274;2023-04-07T01:32:46;99318.66;;;5.76;52.29
10604;BME280;5349;41.554;23.274;2023-04-07T01:35:16;99319.00;;;5.81;52.52
10604;BME280;5349;41.554;23.274;2023-04-07T01:37:44;99302.59;;;5.53;53.22
10604;BME280;5349;41.554;23.274;2023-04-07T01:40:14;99281.50;;;5.29;52.71
10604;BME280;5349;41.554;23.274;2023-04-07T01:42:42;99328.91;;;5.63;53.61
10604;BME280;5349;41.554;23.274;2023-04-07T01:45:10;99330.38;;;5.65;53.12
10604;BME280;5349;41.554;23.274;2023-04-07T01:47:39;99333.03;;;5.65;53.71
10604;BME280;5349;41.554;23.274;2023-04-07T01:50:07;99324.94;;;5.67;54.37
10604;BME280;5349;41.554;23.274;2023-04-07T01:52:35;99318.16;;;5.64;56.25
10604;BME280;5349;41.554;23.274;2023-04-07T01:55:02;99312.53;;;5.51;58.29
10604;BME280;5349;41.554;23.274;2023-04-07T01:57:29;99319.31;;;5.46;59.93
10604;BME280;5349;41.554;23.274;2023-04-07T01:59:56;99326.09;;;5.08;62.80
10604;BME280;5349;41.554;23.274;2023-04-07T02:02:23;99316.16;;;4.94;64.52
10604;BME280;5349;41.554;23.274;2023-04-07T02:04:54;99319.44;;;4.73;65.81
10604;BME280;5349;41.554;23.274;2023-04-07T02:07:26;99320.72;;;4.69;66.34
10604;BME280;5349;41.554;23.274;2023-04-07T02:09:57;99317.75;;;4.64;67.78
10604;BME280;5349;41.554;23.274;2023-04-07T02:12:25;99310.44;;;4.50;68.63
10604;BME280;5349;41.554;23.274;2023-04-07T02:14:54;99318.00;;;4.45;69.80
10604;BME280;5349;41.554;23.274;2023-04-07T02:17:22;99327.22;;;4.41;69.91
10604;BME280;5349;41.554;23.274;2023-04-07T02:19:52;99321.13;;;4.48;69.68
10604;BME280;5349;41.554;23.274;2023-04-07T02:22:19;99331.25;;;4.53;69.97
10604;BME280;5349;41.554;23.274;2023-04-07T02:24:46;99319.81;;;4.44;70.43
10604;BME280;5349;41.554;23.274;2023-04-07T02:27:13;99336.19;;;4.56;70.22
10604;BME280;5349;41.554;23.274;2023-04-07T02:29:40;99332.53;;;4.49;70.73
10604;BME280;5349;41.554;23.274;2023-04-07T02:32:06;99333.19;;;4.43;71.24
10604;BME280;5349;41.554;23.274;2023-04-07T02:34:33;99332.00;;;4.45;71.21
10604;BME280;5349;41.554;23.274;2023-04-07T02:37:01;99337.97;;;4.47;71.16
10604;BME280;5349;41.554;23.274;2023-04-07T02:39:28;99339.81;;;4.55;71.32
10604;BME280;5349;41.554;23.274;2023-04-07T02:41:55;99336.88;;;4.58;71.39
10604;BME280;5349;41.554;23.274;2023-04-07T02:44:22;99333.25;;;4.59;71.37
10604;BME280;5349;41.554;23.274;2023-04-07T02:46:49;99340.50;;;4.57;71.19
10604;BME280;5349;41.554;23.274;2023-04-07T02:49:16;99338.66;;;4.57;71.65
10604;BME280;5349;41.554;23.274;2023-04-07T02:51:43;99339.88;;;4.63;71.40
10604;BME280;5349;41.554;23.274;2023-04-07T02:54:12;99340.66;;;4.63;70.63
10604;BME280;5349;41.554;23.274;2023-04-07T02:56:39;99335.31;;;4.47;71.56
10604;BME280;5349;41.554;23.274;2023-04-07T02:59:06;99332.69;;;4.47;71.50
10604;BME280;5349;41.554;23.274;2023-04-07T03:01:32;99343.53;;;4.28;73.60
10604;BME280;5349;41.554;23.274;2023-04-07T03:04:00;99347.09;;;4.19;74.45
10604;BME280;5349;41.554;23.274;2023-04-07T03:06:27;99348.34;;;4.07;76.23
10604;BME280;5349;41.554;23.274;2023-04-07T03:08:54;99355.03;;;3.94;77.39
10604;BME280;5349;41.554;23.274;2023-04-07T03:11:22;99344.75;;;3.83;77.92
10604;BME280;5349;41.554;23.274;2023-04-07T03:13:49;99357.31;;;3.89;78.71
10604;BME280;5349;41.554;23.274;2023-04-07T03:16:16;99354.88;;;3.95;78.12
10604;BME280;5349;41.554;23.274;2023-04-07T03:18:43;99366.41;;;3.94;76.97
10604;BME280;5349;41.554;23.274;2023-04-07T03:21:09;99360.16;;;3.95;78.14
10604;BME280;5349;41.554;23.274;2023-04-07T03:23:36;99363.63;;;3.96;77.95
10604;BME280;5349;41.554;23.274;2023-04-07T03:26:03;99368.25;;;4.02;77.79
10604;BME280;5349;41.554;23.274;2023-04-07T03:28:32;99365.84;;;4.08;77.68
10604;BME280;5349;41.554;23.274;2023-04-07T03:30:58;99368.66;;;4.15;77.89
10604;BME280;5349;41.554;23.274;2023-04-07T03:33:25;99372.50;;;4.20;78.27
10604;BME280;5349;41.554;23.274;2023-04-07T03:35:52;99374.84;;;4.23;75.92
10604;BME280;5349;41.554;23.274;2023-04-07T03:38:19;99376.81;;;4.21;76.69
10604;BME280;5349;41.554;23.274;2023-04-07T03:40:46;99374.94;;;4.14;77.32
10604;BME280;5349;41.554;23.274;2023-04-07T03:43:13;99377.56;;;4.14;77.42
10604;BME280;5349;41.554;23.274;2023-04-07T03:45:42;99372.59;;;4.11;77.56
10604;BME280;5349;41.554;23.274;2023-04-07T03:48:08;99305.88;;;3.67;78.35
10604;BME280;5349;41.554;23.274;2023-04-07T03:50:36;99386.09;;;4.08;77.93
10604;BME280;5349;41.554;23.274;2023-04-07T03:53:03;99377.88;;;4.11;78.47
10604;BME280;5349;41.554;23.274;2023-04-07T03:55:30;99391.38;;;4.08;77.55
10604;BME280;5349;41.554;23.274;2023-04-07T03:57:57;99391.97;;;3.94;77.44
10604;BME280;5349;41.554;23.274;2023-04-07T04:00:24;99387.09;;;3.81;79.32
10604;BME280;5349;41.554;23.274;2023-04-07T04:02:52;99385.75;;;3.77;80.07
10604;BME280;5349;41.554;23.274;2023-04-07T04:05:19;99385.59;;;3.79;81.35
10604;BME280;5349;41.554;23.274;2023-04-07T04:07:46;99386.78;;;3.84;80.37
10604;BME280;5349;41.554;23.274;2023-04-07T04:10:13;99389.66;;;3.91;80.15
10604;BME280;5349;41.554;23.274;2023-04-07T04:12:40;99397.13;;;3.78;80.32
10604;BME280;5349;41.554;23.274;2023-04-07T04:15:08;99400.91;;;3.58;81.73
10604;BME280;5349;41.554;23.274;2023-04-07T04:17:35;99358.16;;;3.29;82.32
10604;BME280;5349;41.554;23.274;2023-04-07T04:20:04;99400.31;;;3.64;82.36
10604;BME280;5349;41.554;23.274;2023-04-07T04:22:31;99402.88;;;3.56;81.49
10604;BME280;5349;41.554;23.274;2023-04-07T04:24:58;99406.50;;;3.55;82.48
10604;BME280;5349;41.554;23.274;2023-04-07T04:27:25;99405.47;;;3.73;81.47
10604;BME280;5349;41.554;23.274;2023-04-07T04:29:52;99414.00;;;3.85;80.87
10604;BME280;5349;41.554;23.274;2023-04-07T04:32:19;99403.38;;;3.77;80.47
10604;BME280;5349;41.554;23.274;2023-04-07T04:34:46;99415.97;;;3.83;80.18
10604;BME280;5349;41.554;23.274;2023-04-07T04:37:15;99407.75;;;3.86;80.21
10604;BME280;5349;41.554;23.274;2023-04-07T04:39:41;99416.63;;;4.36;76.46
10604;BME280;5349;41.554;23.274;2023-04-07T04:42:08;99416.28;;;5.05;73.17
10604;BME280;5349;41.554;23.274;2023-04-07T04:44:35;99416.00;;;5.48;68.27
10604;BME280;5349;41.554;23.274;2023-04-07T04:47:02;99421.00;;;5.75;67.28
10604;BME280;5349;41.554;23.274;2023-04-07T04:49:29;99411.59;;;6.12;64.86
10604;BME280;5349;41.554;23.274;2023-04-07T04:51:56;99414.66;;;6.40;63.55
10604;BME280;5349;41.554;23.274;2023-04-07T04:54:24;99422.25;;;6.59;62.64
10604;BME280;5349;41.554;23.274;2023-04-07T04:56:51;99417.38;;;6.78;60.29
10604;BME280;5349;41.554;23.274;2023-04-07T04:59:17;99423.53;;;6.71;60.82
10604;BME280;5349;41.554;23.274;2023-04-07T05:01:44;99434.94;;;6.71;60.99
10604;BME280;5349;41.554;23.274;2023-04-07T05:04:11;99433.50;;;6.61;60.36
10604;BME280;5349;41.554;23.274;2023-04-07T05:06:38;99433.41;;;6.22;61.70
10604;BME280;5349;41.554;23.274;2023-04-07T05:09:05;99438.06;;;6.20;62.56
10604;BME280;5349;41.554;23.274;2023-04-07T05:11:33;99438.03;;;6.44;61.98
10604;BME280;5349;41.554;23.274;2023-04-07T05:13:59;99436.88;;;6.31;61.27
10604;BME280;5349;41.554;23.274;2023-04-07T05:16:26;99434.22;;;6.39;61.31
10604;BME280;5349;41.554;23.274;2023-04-07T05:18:53;99445.78;;;6.46;61.36
10604;BME280;5349;41.554;23.274;2023-04-07T05:21:20;99449.44;;;6.45;60.28
10604;BME280;5349;41.554;23.274;2023-04-07T05:23:47;99451.72;;;6.56;60.30
10604;BME280;5349;41.554;23.274;2023-04-07T05:26:13;99456.41;;;6.38;60.61
10604;BME280;5349;41.554;23.274;2023-04-07T05:28:41;99451.75;;;6.48;59.40
10604;BME280;5349;41.554;23.274;2023-04-07T05:31:08;99456.22;;;6.55;59.08
10604;BME280;5349;41.554;23.274;2023-04-07T05:33:35;99448.41;;;6.62;58.31
10604;BME280;5349;41.554;23.274;2023-04-07T05:36:02;99462.41;;;6.86;56.45
10604;BME280;5349;41.554;23.274;2023-04-07T05:38:29;99457.88;;;6.95;56.91
10604;BME280;5349;41.554;23.274;2023-04-07T05:40:56;99458.44;;;7.20;53.69
10604;BME280;5349;41.554;23.274;2023-04-07T05:43:23;99456.06;;;7.33;52.62
10604;BME280;5349;41.554;23.274;2023-04-07T05:45:51;99459.03;;;7.61;51.71
10604;BME280;5349;41.554;23.274;2023-04-07T05:48:18;99458.13;;;7.68;49.42
10604;BME280;5349;41.554;23.274;2023-04-07T05:50:45;99460.03;;;7.82;47.58
10604;BME280;5349;41.554;23.274;2023-04-07T05:53:11;99464.47;;;7.90;46.53
10604;BME280;5349;41.554;23.274;2023-04-07T05:55:41;99459.09;;;7.98;47.02
10604;BME280;5349;41.554;23.274;2023-04-07T05:58:07;99467.97;;;8.05;45.87
10604;BME280;5349;41.554;23.274;2023-04-07T06:00:34;99464.41;;;8.20;44.97
10604;BME280;5349;41.554;23.274;2023-04-07T06:03:03;99469.97;;;8.33;44.72
10604;BME280;5349;41.554;23.274;2023-04-07T06:05:29;99467.41;;;8.54;43.80
10604;BME280;5349;41.554;23.274;2023-04-07T06:07:56;99467.06;;;8.86;43.59
10604;BME280;5349;41.554;23.274;2023-04-07T06:10:24;99464.31;;;8.94;43.08
10604;BME280;5349;41.554;23.274;2023-04-07T06:12:51;99464.28;;;9.23;42.96
10604;BME280;5349;41.554;23.274;2023-04-07T06:15:18;99454.00;;;9.55;44.90
10604;BME280;5349;41.554;23.274;2023-04-07T06:17:44;99454.94;;;9.83;46.04
10604;BME280;5349;41.554;23.274;2023-04-07T06:20:12;99459.59;;;10.16;46.95
10604;BME280;5349;41.554;23.274;2023-04-07T06:22:39;99456.78;;;10.52;46.83
10604;BME280;5349;41.554;23.274;2023-04-07T06:25:07;99459.00;;;10.76;45.33
10604;BME280;5349;41.554;23.274;2023-04-07T06:27:34;99460.63;;;11.04;45.37
10604;BME280;5349;41.554;23.274;2023-04-07T06:30:01;99463.19;;;11.25;45.05
10604;BME280;5349;41.554;23.274;2023-04-07T06:32:28;99453.38;;;11.38;45.28
10604;BME280;5349;41.554;23.274;2023-04-07T06:34:55;99456.06;;;11.45;44.63
10604;BME280;5349;41.554;23.274;2023-04-07T06:37:23;99461.94;;;11.68;44.89
10604;BME280;5349;41.554;23.274;2023-04-07T06:39:50;99461.13;;;11.74;44.75
10604;BME280;5349;41.554;23.274;2023-04-07T06:42:17;99458.47;;;11.80;44.20
10604;BME280;5349;41.554;23.274;2023-04-07T06:44:44;99454.97;;;11.80;44.74
10604;BME280;5349;41.554;23.274;2023-04-07T06:47:10;99455.19;;;11.85;44.59
10604;BME280;5349;41.554;23.274;2023-04-07T06:49:37;99454.78;;;11.94;44.86
10604;BME280;5349;41.554;23.274;2023-04-07T06:52:04;99459.09;;;11.95;44.36
10604;BME280;5349;41.554;23.274;2023-04-07T06:54:33;99453.53;;;11.84;42.67
10604;BME280;5349;41.554;23.274;2023-04-07T06:57:00;99453.56;;;11.97;41.82
10604;BME280;5349;41.554;23.274;2023-04-07T06:59:27;99456.25;;;12.09;40.67
10604;BME280;5349;41.554;23.274;2023-04-07T07:01:53;99449.88;;;12.04;40.09
10604;BME280;5349;41.554;23.274;2023-04-07T07:04:20;99451.94;;;11.96;39.45
10604;BME280;5349;41.554;23.274;2023-04-07T07:06:47;99445.72;;;11.82;40.20
10604;BME280;5349;41.554;23.274;2023-04-07T07:09:14;99442.03;;;11.77;39.35
10604;BME280;5349;41.554;23.274;2023-04-07T07:11:42;99439.94;;;11.72;38.92
10604;BME280;5349;41.554;23.274;2023-04-07T07:14:09;99445.72;;;11.82;39.15
10604;BME280;5349;41.554;23.274;2023-04-07T07:16:35;99443.88;;;11.89;39.38
10604;BME280;5349;41.554;23.274;2023-04-07T07:19:02;99447.41;;;12.15;39.66
10604;BME280;5349;41.554;23.274;2023-04-07T07:21:29;99446.59;;;12.34;38.13
10604;BME280;5349;41.554;23.274;2023-04-07T07:23:57;99443.91;;;12.41;37.92
10604;BME280;5349;41.554;23.274;2023-04-07T07:26:23;99442.81;;;11.71;38.16
10604;BME280;5349;41.554;23.274;2023-04-07T07:28:52;99435.25;;;11.81;39.53
10604;BME280;5349;41.554;23.274;2023-04-07T07:31:18;99443.88;;;11.23;39.20
10604;BME280;5349;41.554;23.274;2023-04-07T07:33:45;99437.84;;;11.55;39.32
10604;BME280;5349;41.554;23.274;2023-04-07T07:36:14;99440.41;;;10.88;39.69
10604;BME280;5349;41.554;23.274;2023-04-07T07:38:40;99442.97;;;11.09;39.24
10604;BME280;5349;41.554;23.274;2023-04-07T07:41:07;99436.69;;;10.83;38.81
10604;BME280;5349;41.554;23.274;2023-04-07T07:43:34;99426.22;;;11.22;39.44
10604;BME280;5349;41.554;23.274;2023-04-07T07:46:03;99428.41;;;11.12;38.72
10604;BME280;5349;41.554;23.274;2023-04-07T07:48:30;99433.75;;;11.12;37.67
10604;BME280;5349;41.554;23.274;2023-04-07T07:50:56;99432.81;;;11.39;38.15
10604;BME280;5349;41.554;23.274;2023-04-07T07:53:23;99391.28;;;11.23;38.70
10604;BME280;5349;41.554;23.274;2023-04-07T07:55:50;99428.44;;;11.65;39.16
10604;BME280;5349;41.554;23.274;2023-04-07T07:58:17;99435.25;;;11.81;38.45
10604;BME280;5349;41.554;23.274;2023-04-07T08:00:44;99425.78;;;11.91;38.76
10604;BME280;5349;41.554;23.274;2023-04-07T08:03:12;99430.94;;;12.06;37.36
10604;BME280;5349;41.554;23.274;2023-04-07T08:05:39;99430.56;;;12.28;37.37
10604;BME280;5349;41.554;23.274;2023-04-07T08:08:07;99428.28;;;11.93;37.46
10604;BME280;5349;41.554;23.274;2023-04-07T08:10:34;99419.84;;;12.02;37.51
10604;BME280;5349;41.554;23.274;2023-04-07T08:13:00;99418.59;;;12.17;37.19
10604;BME280;5349;41.554;23.274;2023-04-07T08:15:27;99418.19;;;12.33;37.36
10604;BME280;5349;41.554;23.274;2023-04-07T08:17:54;99423.31;;;12.48;37.82
10604;BME280;5349;41.554;23.274;2023-04-07T08:20:22;99426.34;;;12.84;37.44
10604;BME280;5349;41.554;23.274;2023-04-07T08:22:49;99423.00;;;13.14;37.32
10604;BME280;5349;41.554;23.274;2023-04-07T08:25:16;99411.75;;;12.93;35.55
10604;BME280;5349;41.554;23.274;2023-04-07T08:27:43;99413.97;;;12.89;36.33
10604;BME280;5349;41.554;23.274;2023-04-07T08:30:10;99402.03;;;13.05;35.65
10604;BME280;5349;41.554;23.274;2023-04-07T08:32:38;99375.25;;;12.98;37.30
10604;BME280;5349;41.554;23.274;2023-04-07T08:35:06;99384.47;;;13.52;36.27
10604;BME280;5349;41.554;23.274;2023-04-07T08:37:35;99410.81;;;13.62;34.53
10604;BME280;5349;41.554;23.274;2023-04-07T08:40:03;99417.06;;;12.86;34.90
10604;BME280;5349;41.554;23.274;2023-04-07T08:42:31;99418.72;;;12.87;34.79
10604;BME280;5349;41.554;23.274;2023-04-07T08:45:05;99408.28;;;12.60;34.41
10604;BME280;5349;41.554;23.274;2023-04-07T08:47:35;99412.38;;;12.82;34.86
10604;BME280;5349;41.554;23.274;2023-04-07T08:50:04;99411.16;;;12.71;34.35
10604;BME280;5349;41.554;23.274;2023-04-07T08:52:36;99397.81;;;12.58;34.26
10604;BME280;5349;41.554;23.274;2023-04-07T08:55:07;99395.84;;;13.11;36.51
10604;BME280;5349;41.554;23.274;2023-04-07T08:57:34;99391.25;;;13.55;36.86
10604;BME280;5349;41.554;23.274;2023-04-07T09:00:02;99395.78;;;13.92;36.02
10604;BME280;5349;41.554;23.274;2023-04-07T09:02:32;99389.03;;;14.14;34.02
10604;BME280;5349;41.554;23.274;2023-04-07T09:04:59;99395.34;;;14.44;35.36
10604;BME280;5349;41.554;23.274;2023-04-07T09:07:26;99386.66;;;14.66;33.97
10604;BME280;5349;41.554;23.274;2023-04-07T09:09:55;99381.25;;;14.72;33.41
10604;BME280;5349;41.554;23.274;2023-04-07T09:12:22;99379.03;;;14.87;33.32
10604;BME280;5349;41.554;23.274;2023-04-07T09:14:49;99386.00;;;15.24;32.02
10604;BME280;5349;41.554;23.274;2023-04-07T09:17:16;99378.38;;;15.39;32.09
10604;BME280;5349;41.554;23.274;2023-04-07T09:19:43;99379.53;;;15.61;35.67
10604;BME280;5349;41.554;23.274;2023-04-07T09:22:10;99375.41;;;15.59;43.26
10604;BME280;5349;41.554;23.274;2023-04-07T09:24:39;99375.25;;;15.06;37.84
10604;BME280;5349;41.554;23.274;2023-04-07T09:27:12;99376.28;;;15.23;36.12
10604;BME280;5349;41.554;23.274;2023-04-07T09:29:40;99373.78;;;15.58;36.38
10604;BME280;5349;41.554;23.274;2023-04-07T09:32:08;99370.59;;;15.79;31.31
10604;BME280;5349;41.554;23.274;2023-04-07T09:34:36;99366.53;;;15.99;32.50
10604;BME280;5349;41.554;23.274;2023-04-07T09:37:04;99367.25;;;16.06;31.15
10604;BME280;5349;41.554;23.274;2023-04-07T09:39:31;99361.88;;;16.06;34.03
10604;BME280;5349;41.554;23.274;2023-04-07T09:42:05;99374.28;;;16.18;36.74
10604;BME280;5349;41.554;23.274;2023-04-07T09:44:38;99327.22;;;16.09;32.36
10604;BME280;5349;41.554;23.274;2023-04-07T09:47:06;99364.88;;;15.98;29.22
